createdAt,value
2023-02-16T00:01:13.192Z,6.49
2023-02-16T00:03:39.753Z,6.46
2023-02-16T00:06:06.887Z,6.42
2023-02-16T00:08:33.422Z,6.40
2023-02-16T00:11:18.385Z,6.35
2023-02-16T00:13:45.028Z,6.33
2023-02-16T00:16:19.385Z,6.31
2023-02-16T00:18:46.300Z,6.27
2023-02-16T00:21:13.050Z,6.30
2023-02-16T00:23:39.580Z,6.28
2023-02-16T00:26:13.076Z,6.26
2023-02-16T00:28:39.582Z,6.19
2023-02-16T00:31:06.526Z,6.14
2023-02-16T00:33:33.267Z,6.18
2023-02-16T00:35:59.755Z,6.18
2023-02-16T00:38:26.256Z,6.20
2023-02-16T00:40:52.746Z,6.21
2023-02-16T00:43:26.192Z,6.16
2023-02-16T00:45:53.510Z,6.18
2023-02-16T00:48:20.276Z,6.18
2023-02-16T00:50:46.855Z,6.16
2023-02-16T00:53:14.137Z,6.12
2023-02-16T00:55:42.304Z,6.14
2023-02-16T00:58:13.771Z,6.06
2023-02-16T01:00:43.706Z,6.08
2023-02-16T01:03:23.312Z,6.02
2023-02-16T01:06:10.349Z,6.01
2023-02-16T01:08:55.458Z,5.96
2023-02-16T01:11:24.136Z,5.99
2023-02-16T01:13:51.826Z,6.01
2023-02-16T01:16:25.235Z,6.00
2023-02-16T01:18:52.781Z,5.99
2023-02-16T01:21:21.845Z,5.96
2023-02-16T01:23:48.386Z,5.96
2023-02-16T01:26:18.942Z,5.95
2023-02-16T01:28:45.627Z,5.95
2023-02-16T01:31:13.665Z,5.90
2023-02-16T01:33:41.802Z,5.88
2023-02-16T01:36:29.782Z,5.87
2023-02-16T01:38:56.293Z,5.85
2023-02-16T01:41:55.805Z,5.78
2023-02-16T01:44:25.733Z,5.80
2023-02-16T01:46:56.137Z,5.80
2023-02-16T01:49:23.210Z,5.82
2023-02-16T01:52:14.554Z,5.74
2023-02-16T01:55:00.690Z,5.71
2023-02-16T01:57:45.753Z,5.71
2023-02-16T02:00:14.762Z,5.74
2023-02-16T02:02:49.664Z,5.70
2023-02-16T02:05:35.349Z,5.73
2023-02-16T02:08:38.678Z,5.71
2023-02-16T02:11:16.925Z,5.73
2023-02-16T02:13:50.651Z,5.71
2023-02-16T02:16:20.396Z,5.69
2023-02-16T02:18:48.238Z,5.65
2023-02-16T02:21:54.111Z,5.57
2023-02-16T02:24:32.505Z,5.54
2023-02-16T02:27:34.116Z,5.55
2023-02-16T02:30:19.183Z,5.51
2023-02-16T02:33:01.069Z,5.51
2023-02-16T02:35:48.260Z,5.57
2023-02-16T02:38:33.394Z,5.54
2023-02-16T02:41:15.652Z,5.51
2023-02-16T02:44:03.194Z,5.47
2023-02-16T02:46:35.236Z,5.47
2023-02-16T02:49:01.959Z,5.49
2023-02-16T02:51:32.106Z,5.51
2023-02-16T02:54:29.080Z,5.46
2023-02-16T02:57:54.494Z,5.49
2023-02-16T03:00:43.803Z,5.48
2023-02-16T03:03:22.038Z,5.48
2023-02-16T03:05:53.509Z,5.42
2023-02-16T03:08:24.425Z,5.43
2023-02-16T03:11:18.489Z,5.44
2023-02-16T03:13:48.516Z,5.41
2023-02-16T03:16:22.877Z,5.36
2023-02-16T03:19:08.010Z,5.43
2023-02-16T03:21:54.572Z,5.40
2023-02-16T03:24:51.200Z,5.36
2023-02-16T03:27:43.253Z,5.44
2023-02-16T03:30:11.765Z,5.43
2023-02-16T03:32:39.206Z,5.42
2023-02-16T03:35:06.266Z,5.42
2023-02-16T03:37:33.731Z,5.33
2023-02-16T03:40:19.169Z,5.29
2023-02-16T03:42:51.896Z,5.32
2023-02-16T03:45:19.721Z,5.31
2023-02-16T03:47:46.202Z,5.35
2023-02-16T03:50:12.755Z,5.31
2023-02-16T03:52:39.248Z,5.29
2023-02-16T03:55:06.150Z,5.31
2023-02-16T03:57:32.713Z,5.30
2023-02-16T03:59:59.503Z,5.32
2023-02-16T04:02:27.878Z,5.28
2023-02-16T04:04:54.504Z,5.30
2023-02-16T04:07:21.185Z,5.29
2023-02-16T04:09:47.725Z,5.27
2023-02-16T04:12:32.582Z,5.30
2023-02-16T04:14:59.085Z,5.30
2023-02-16T04:17:25.971Z,5.29
2023-02-16T04:19:52.479Z,5.31
2023-02-16T04:22:19.015Z,5.28
2023-02-16T04:24:45.791Z,5.27
2023-02-16T04:27:12.265Z,5.29
2023-02-16T04:29:38.741Z,5.28
2023-02-16T04:32:06.462Z,5.24
2023-02-16T04:34:33.091Z,5.26
2023-02-16T04:36:59.641Z,5.27
2023-02-16T04:39:26.138Z,5.29
2023-02-16T04:41:53.136Z,5.28
2023-02-16T04:44:19.623Z,5.28
2023-02-16T04:46:46.156Z,5.24
2023-02-16T04:49:12.732Z,5.25
2023-02-16T04:51:40.091Z,5.24
2023-02-16T04:54:07.994Z,5.23
2023-02-16T04:56:34.473Z,5.24
2023-02-16T04:59:00.948Z,5.22
2023-02-16T05:01:28.144Z,5.23
2023-02-16T05:03:55.548Z,5.22
2023-02-16T05:06:22.579Z,5.23
2023-02-16T05:08:49.148Z,5.24
2023-02-16T05:11:34.291Z,5.20
2023-02-16T05:14:19.745Z,5.11
2023-02-16T05:16:46.690Z,5.09
2023-02-16T05:19:13.244Z,5.08
2023-02-16T05:21:39.911Z,5.13
2023-02-16T05:24:09.099Z,5.07
2023-02-16T05:26:37.663Z,5.10
2023-02-16T05:29:04.339Z,5.11
2023-02-16T05:31:31.516Z,5.16
2023-02-16T05:33:58.288Z,5.16
2023-02-16T05:36:25.371Z,5.15
2023-02-16T05:38:51.885Z,5.17
2023-02-16T05:41:24.321Z,5.19
2023-02-16T05:44:01.740Z,5.18
2023-02-16T05:46:29.572Z,5.16
2023-02-16T05:48:56.238Z,5.19
2023-02-16T05:51:25.322Z,5.17
2023-02-16T05:53:53.375Z,5.25
2023-02-16T05:56:20.614Z,5.26
2023-02-16T05:58:47.183Z,5.28
2023-02-16T06:01:14.393Z,5.31
2023-02-16T06:03:41.462Z,5.35
2023-02-16T06:06:09.735Z,5.43
2023-02-16T06:08:37.069Z,5.48
2023-02-16T06:11:07.159Z,5.51
2023-02-16T06:13:34.297Z,5.56
2023-02-16T06:16:00.805Z,5.59
2023-02-16T06:18:27.378Z,5.64
2023-02-16T06:20:57.028Z,5.57
2023-02-16T06:23:23.512Z,5.59
2023-02-16T06:25:53.337Z,5.62
2023-02-16T06:28:19.859Z,5.68
2023-02-16T06:30:49.544Z,5.63
2023-02-16T06:33:16.012Z,5.67
2023-02-16T06:35:42.535Z,5.72
2023-02-16T06:38:09.069Z,5.76
2023-02-16T06:40:35.562Z,5.73
2023-02-16T06:43:02.163Z,5.75
2023-02-16T06:45:28.716Z,5.73
2023-02-16T06:47:55.490Z,5.77
2023-02-16T06:50:22.071Z,5.79
2023-02-16T06:52:50.799Z,5.79
2023-02-16T06:55:17.370Z,5.77
2023-02-16T06:57:44.197Z,5.76
2023-02-16T07:00:11.157Z,5.70
2023-02-16T07:02:37.780Z,5.74
2023-02-16T07:05:04.572Z,5.74
2023-02-16T07:07:31.398Z,5.67
2023-02-16T07:09:58.431Z,5.58
2023-02-16T07:12:25.058Z,5.64
2023-02-16T07:14:51.522Z,5.66
2023-02-16T07:17:18.195Z,5.60
2023-02-16T07:19:44.715Z,5.58
2023-02-16T07:22:13.712Z,5.57
2023-02-16T07:24:40.237Z,5.59
2023-02-16T07:27:08.633Z,5.59
2023-02-16T07:29:37.549Z,5.54
2023-02-16T07:32:04.404Z,5.52
2023-02-16T07:34:31.179Z,5.60
2023-02-16T07:36:58.038Z,5.57
2023-02-16T07:39:24.692Z,5.58
2023-02-16T07:41:53.660Z,5.62
2023-02-16T07:44:20.264Z,5.66
2023-02-16T07:46:46.743Z,5.68
2023-02-16T07:49:13.310Z,5.75
2023-02-16T07:51:40.701Z,5.80
2023-02-16T07:54:07.381Z,5.83
2023-02-16T07:56:34.995Z,5.85
2023-02-16T07:59:03.132Z,5.84
2023-02-16T08:01:30.994Z,5.94
2023-02-16T08:03:58.274Z,6.04
2023-02-16T08:06:24.871Z,6.10
2023-02-16T08:08:51.371Z,6.07
2023-02-16T08:11:21.308Z,6.04
2023-02-16T08:13:48.114Z,6.01
2023-02-16T08:16:20.871Z,5.98
2023-02-16T08:18:47.434Z,6.02
2023-02-16T08:21:19.024Z,5.99
2023-02-16T08:23:48.214Z,5.98
2023-02-16T08:26:20.119Z,6.00
2023-02-16T08:28:50.291Z,5.97
2023-02-16T08:31:20.692Z,5.99
2023-02-16T08:33:48.080Z,5.97
2023-02-16T08:36:36.269Z,6.02
2023-02-16T08:39:05.824Z,6.06
2023-02-16T08:41:34.828Z,6.10
2023-02-16T08:44:02.355Z,6.25
2023-02-16T08:46:33.222Z,6.40
2023-02-16T08:49:01.534Z,6.43
2023-02-16T08:51:30.584Z,6.49
2023-02-16T08:53:58.814Z,6.46
2023-02-16T08:56:26.030Z,6.57
2023-02-16T08:58:52.586Z,6.74
2023-02-16T09:01:19.268Z,6.83
2023-02-16T09:03:46.752Z,6.90
2023-02-16T09:06:15.566Z,7.00
2023-02-16T09:08:42.255Z,6.88
2023-02-16T09:11:12.102Z,6.95
2023-02-16T09:13:40.345Z,6.91
2023-02-16T09:16:09.919Z,6.91
2023-02-16T09:18:37.508Z,7.00
2023-02-16T09:21:06.868Z,7.07
2023-02-16T09:23:35.788Z,7.10
2023-02-16T09:26:02.992Z,7.08
2023-02-16T09:28:30.814Z,7.10
2023-02-16T09:30:57.439Z,7.09
2023-02-16T09:33:24.473Z,7.04
2023-02-16T09:35:51.054Z,7.06
2023-02-16T09:38:17.819Z,6.98
2023-02-16T09:40:44.973Z,6.95
2023-02-16T09:43:53.138Z,6.94
2023-02-16T09:46:23.093Z,6.91
2023-02-16T09:48:51.080Z,6.87
2023-02-16T09:51:41.124Z,6.90
2023-02-16T09:54:34.867Z,6.91
2023-02-16T09:57:21.456Z,6.90
2023-02-16T09:59:56.577Z,6.96
2023-02-16T10:02:42.188Z,6.97
2023-02-16T10:05:32.988Z,6.98
2023-02-16T10:08:03.651Z,6.99
2023-02-16T10:10:40.221Z,7.01
2023-02-16T10:13:16.955Z,7.04
2023-02-16T10:15:45.650Z,7.03
2023-02-16T10:18:33.819Z,7.03
2023-02-16T10:21:05.495Z,6.99
2023-02-16T10:23:45.661Z,6.99
2023-02-16T10:26:32.126Z,7.02
2023-02-16T10:29:14.533Z,7.08
2023-02-16T10:32:00.108Z,7.11
2023-02-16T10:34:32.538Z,7.16
2023-02-16T10:37:21.335Z,7.19
2023-02-16T10:40:17.263Z,7.25
2023-02-16T10:42:55.491Z,7.30
2023-02-16T10:45:45.203Z,7.45
2023-02-16T10:48:11.823Z,7.55
2023-02-16T10:50:54.860Z,7.62
2023-02-16T10:53:43.285Z,7.71
2023-02-16T10:56:41.950Z,7.75
2023-02-16T10:59:15.908Z,7.82
2023-02-16T11:01:49.757Z,7.82
2023-02-16T11:04:43.709Z,7.90
2023-02-16T11:07:16.372Z,7.90
2023-02-16T11:09:45.255Z,7.92
2023-02-16T11:12:42.018Z,7.92
2023-02-16T11:15:17.629Z,7.92
2023-02-16T11:18:05.254Z,7.92
2023-02-16T11:20:45.136Z,7.94
2023-02-16T11:23:14.704Z,7.94
2023-02-16T11:25:42.635Z,7.97
2023-02-16T11:28:11.418Z,7.96
2023-02-16T11:30:41.431Z,7.98
2023-02-16T11:33:26.935Z,8.00
2023-02-16T11:35:54.693Z,8.01
2023-02-16T11:38:28.497Z,8.04
2023-02-16T11:40:56.134Z,8.02
2023-02-16T11:43:30.357Z,8.05
2023-02-16T11:46:00.276Z,8.11
2023-02-16T11:48:31.479Z,8.14
2023-02-16T11:51:05.994Z,8.18
2023-02-16T11:53:37.068Z,8.13
2023-02-16T11:56:21.596Z,8.10
2023-02-16T11:59:24.415Z,8.08
2023-02-16T12:01:53.733Z,8.07
2023-02-16T12:04:38.699Z,8.07
2023-02-16T12:07:08.848Z,8.10
2023-02-16T12:09:49.793Z,8.10
2023-02-16T12:12:33.456Z,8.13
2023-02-16T12:15:15.236Z,8.21
2023-02-16T12:17:48.698Z,8.24
2023-02-16T12:20:33.889Z,8.21
2023-02-16T12:23:36.574Z,8.33
2023-02-16T12:26:36.640Z,8.35
2023-02-16T12:29:21.249Z,8.38
2023-02-16T12:32:01.624Z,8.41
2023-02-16T12:34:37.247Z,8.52
2023-02-16T12:37:52.433Z,8.50
2023-02-16T12:40:31.446Z,8.55
2023-02-16T12:43:06.981Z,8.67
2023-02-16T12:45:37.582Z,8.86
2023-02-16T12:48:27.505Z,8.76
2023-02-16T12:50:56.613Z,8.77
2023-02-16T12:53:28.963Z,8.73
2023-02-16T12:56:12.575Z,8.69
2023-02-16T12:58:43.867Z,8.66
2023-02-16T13:01:17.284Z,8.55
2023-02-16T13:03:58.623Z,8.57
2023-02-16T13:06:34.198Z,8.55
2023-02-16T13:09:16.327Z,8.61
2023-02-16T13:12:08.831Z,8.56
2023-02-16T13:14:40.083Z,8.64
2023-02-16T13:17:16.031Z,8.75
2023-02-16T13:19:44.538Z,8.83
2023-02-16T13:22:28.307Z,8.87
2023-02-16T13:24:54.847Z,8.95
2023-02-16T13:27:55.585Z,9.04
2023-02-16T13:30:57.589Z,9.05
2023-02-16T13:33:37.207Z,8.90
2023-02-16T13:36:26.490Z,8.81
2023-02-16T13:39:30.809Z,8.89
2023-02-16T13:42:12.356Z,8.83
2023-02-16T13:44:50.657Z,8.72
2023-02-16T13:47:26.854Z,8.69
2023-02-16T13:50:07.787Z,8.73
2023-02-16T13:52:41.928Z,8.74
2023-02-16T13:55:23.394Z,8.74
2023-02-16T13:57:51.794Z,8.73
2023-02-16T14:00:39.209Z,8.76
2023-02-16T14:03:37.606Z,8.75
2023-02-16T14:06:25.973Z,8.73
2023-02-16T14:09:13.802Z,8.72
2023-02-16T14:11:57.858Z,8.76
2023-02-16T14:14:39.252Z,8.83
2023-02-16T14:17:14.596Z,8.89
2023-02-16T14:19:52.773Z,8.97
2023-02-16T14:22:23.236Z,9.00
2023-02-16T14:25:02.035Z,9.01
2023-02-16T14:27:45.432Z,9.04
2023-02-16T14:30:24.383Z,9.07
2023-02-16T14:33:17.806Z,9.06
2023-02-16T14:36:09.173Z,9.12
2023-02-16T14:38:42.330Z,9.05
2023-02-16T14:41:15.849Z,9.08
2023-02-16T14:43:44.127Z,9.11
2023-02-16T14:46:35.054Z,9.17
2023-02-16T14:49:26.934Z,9.18
2023-02-16T14:52:38.775Z,9.21
2023-02-16T14:55:14.395Z,9.21
2023-02-16T14:57:50.010Z,9.24
2023-02-16T15:00:48.444Z,9.26
2023-02-16T15:03:15.023Z,9.27
2023-02-16T15:05:51.925Z,9.29
2023-02-16T15:08:22.620Z,9.33
2023-02-16T15:10:54.351Z,9.36
2023-02-16T15:13:31.161Z,9.40
2023-02-16T15:16:00.894Z,9.43
2023-02-16T15:18:34.509Z,9.42
2023-02-16T15:21:01.022Z,9.43
2023-02-16T15:23:34.542Z,9.44
2023-02-16T15:26:07.434Z,9.44
2023-02-16T15:28:37.758Z,9.44
2023-02-16T15:31:17.996Z,9.47
2023-02-16T15:33:55.796Z,9.48
2023-02-16T15:36:30.276Z,9.49
2023-02-16T15:39:06.085Z,9.50
2023-02-16T15:41:43.307Z,9.52
2023-02-16T15:44:31.287Z,9.54
2023-02-16T15:47:29.963Z,9.54
2023-02-16T15:49:56.648Z,9.54
2023-02-16T15:52:32.544Z,9.57
2023-02-16T15:55:02.523Z,9.56
2023-02-16T15:57:38.984Z,9.57
2023-02-16T16:00:14.508Z,9.57
2023-02-16T16:02:47.516Z,9.55
2023-02-16T16:05:26.208Z,9.53
2023-02-16T16:07:54.359Z,9.54
2023-02-16T16:10:29.133Z,9.56
2023-02-16T16:13:02.511Z,9.55
2023-02-16T16:15:32.694Z,9.55
2023-02-16T16:18:00.984Z,9.60
2023-02-16T16:20:32.024Z,9.57
2023-02-16T16:23:01.491Z,9.56
2023-02-16T16:25:44.856Z,9.58
2023-02-16T16:28:32.367Z,9.59
2023-02-16T16:31:14.631Z,9.59
2023-02-16T16:34:04.772Z,9.60
2023-02-16T16:36:37.676Z,9.64
2023-02-16T16:39:16.444Z,9.63
2023-02-16T16:41:45.908Z,9.63
2023-02-16T16:44:41.078Z,9.60
2023-02-16T16:47:28.972Z,9.61
2023-02-16T16:49:59.199Z,9.62
2023-02-16T16:52:43.307Z,9.67
2023-02-16T16:55:18.722Z,9.64
2023-02-16T16:57:45.961Z,9.64
2023-02-16T17:00:13.066Z,9.67
2023-02-16T17:02:39.551Z,9.71
2023-02-16T17:05:06.582Z,9.73
2023-02-16T17:07:35.990Z,9.72
2023-02-16T17:10:02.672Z,9.72
2023-02-16T17:12:32.893Z,9.74
2023-02-16T17:15:01.658Z,9.75
2023-02-16T17:17:28.341Z,9.76
2023-02-16T17:19:54.902Z,9.83
2023-02-16T17:22:21.563Z,9.83
2023-02-16T17:24:48.167Z,9.84
2023-02-16T17:27:14.961Z,9.85
2023-02-16T17:29:43.132Z,9.82
2023-02-16T17:32:09.945Z,9.87
2023-02-16T17:34:36.598Z,9.89
2023-02-16T17:37:09.281Z,9.87
2023-02-16T17:39:36.486Z,9.85
2023-02-16T17:42:03.332Z,9.91
2023-02-16T17:44:29.949Z,9.87
2023-02-16T17:46:56.596Z,9.89
2023-02-16T17:49:23.128Z,9.92
2023-02-16T17:51:49.643Z,9.93
2023-02-16T17:54:16.231Z,9.95
2023-02-16T17:56:45.028Z,9.94
2023-02-16T17:59:15.901Z,9.98
2023-02-16T18:01:43.595Z,9.94
2023-02-16T18:04:10.263Z,9.96
2023-02-16T18:06:37.392Z,10.00
2023-02-16T18:09:04.722Z,9.99
2023-02-16T18:11:31.194Z,10.03
2023-02-16T18:13:57.752Z,10.06
2023-02-16T18:16:26.745Z,10.09
2023-02-16T18:18:53.334Z,10.16
2023-02-16T18:21:19.864Z,10.15
2023-02-16T18:23:46.481Z,10.17
2023-02-16T18:26:14.763Z,10.17
2023-02-16T18:28:41.358Z,10.16
2023-02-16T18:31:08.432Z,10.11
2023-02-16T18:33:35.291Z,10.09
2023-02-16T18:36:01.886Z,10.06
2023-02-16T18:38:28.662Z,10.06
2023-02-16T18:40:55.283Z,10.04
2023-02-16T18:43:22.972Z,10.07
2023-02-16T18:45:52.069Z,10.05
2023-02-16T18:48:18.639Z,10.02
2023-02-16T18:50:45.505Z,10.02
2023-02-16T18:53:12.387Z,10.03
2023-02-16T18:55:39.062Z,10.02
2023-02-16T18:58:08.242Z,9.99
2023-02-16T19:00:36.057Z,10.00
2023-02-16T19:03:03.213Z,9.97
2023-02-16T19:05:30.118Z,9.96
2023-02-16T19:07:57.087Z,9.96
2023-02-16T19:10:25.176Z,9.95
2023-02-16T19:12:53.105Z,9.94
2023-02-16T19:15:21.184Z,9.98
2023-02-16T19:17:48.106Z,9.96
2023-02-16T19:20:18.197Z,9.93
2023-02-16T19:22:49.019Z,9.92
2023-02-16T19:25:16.328Z,9.91
2023-02-16T19:27:43.790Z,9.87
2023-02-16T19:30:13.656Z,9.87
2023-02-16T19:32:41.297Z,9.90
2023-02-16T19:35:12.155Z,9.88
2023-02-16T19:37:39.080Z,9.86
2023-02-16T19:40:06.883Z,9.81
2023-02-16T19:42:33.401Z,9.78
2023-02-16T19:44:59.985Z,9.78
2023-02-16T19:47:26.510Z,9.75
2023-02-16T19:49:53.022Z,9.72
2023-02-16T19:52:19.551Z,9.73
2023-02-16T19:54:46.078Z,9.70
2023-02-16T19:57:13.075Z,9.68
2023-02-16T19:59:39.596Z,9.67
2023-02-16T20:02:06.389Z,9.64
2023-02-16T20:04:32.963Z,9.63
2023-02-16T20:06:59.502Z,9.61
2023-02-16T20:09:26.056Z,9.60
2023-02-16T20:11:52.707Z,9.57
2023-02-16T20:14:19.382Z,9.57
2023-02-16T20:16:46.140Z,9.58
2023-02-16T20:19:13.151Z,9.60
2023-02-16T20:21:44.038Z,9.58
2023-02-16T20:24:10.865Z,9.60
2023-02-16T20:26:40.533Z,9.62
2023-02-16T20:29:08.962Z,9.64
2023-02-16T20:31:57.080Z,9.60
2023-02-16T20:34:26.374Z,9.60
2023-02-16T20:36:53.965Z,9.63
2023-02-16T20:39:20.625Z,9.61
2023-02-16T20:41:47.201Z,9.63
2023-02-16T20:44:13.866Z,9.62
2023-02-16T20:46:41.072Z,9.62
2023-02-16T20:49:23.028Z,9.59
2023-02-16T20:51:49.721Z,9.60
2023-02-16T20:54:16.426Z,9.63
2023-02-16T20:56:43.070Z,9.63
2023-02-16T20:59:11.551Z,9.65
2023-02-16T21:01:41.596Z,9.64
2023-02-16T21:04:08.882Z,9.70
2023-02-16T21:06:35.952Z,9.67
2023-02-16T21:09:04.394Z,9.67
2023-02-16T21:11:31.108Z,9.66
2023-02-16T21:14:02.252Z,9.66
2023-02-16T21:16:28.936Z,9.67
2023-02-16T21:18:55.632Z,9.72
2023-02-16T21:21:24.665Z,9.69
2023-02-16T21:23:53.311Z,9.69
2023-02-16T21:26:22.131Z,9.68
2023-02-16T21:28:48.642Z,9.67
2023-02-16T21:31:18.359Z,9.73
2023-02-16T21:33:45.419Z,9.71
2023-02-16T21:36:18.719Z,9.72
2023-02-16T21:38:45.680Z,9.72
2023-02-16T21:41:25.916Z,9.68
2023-02-16T21:44:04.158Z,9.68
2023-02-16T21:46:33.424Z,9.65
2023-02-16T21:49:00.410Z,9.64
2023-02-16T21:51:44.144Z,9.65
2023-02-16T21:54:14.559Z,9.65
2023-02-16T21:56:53.983Z,9.63
2023-02-16T21:59:22.706Z,9.70
2023-02-16T22:01:51.649Z,9.76
2023-02-16T22:04:22.892Z,9.81
2023-02-16T22:07:34.633Z,9.83
2023-02-16T22:12:54.216Z,9.75
2023-02-16T22:15:20.905Z,9.72
2023-02-16T22:17:49.458Z,9.74
2023-02-16T22:20:17.801Z,9.74
2023-02-16T22:22:44.817Z,9.75
2023-02-16T22:25:12.262Z,9.76
2023-02-16T22:27:39.332Z,9.75
2023-02-16T22:30:07.615Z,9.74
2023-02-16T22:32:34.168Z,9.75
2023-02-16T22:35:00.729Z,9.76
2023-02-16T22:37:27.237Z,9.77
2023-02-16T22:39:55.247Z,9.80
2023-02-16T22:42:22.757Z,9.82
2023-02-16T22:44:49.287Z,9.81
2023-02-16T22:47:16.122Z,9.80
2023-02-16T22:49:42.850Z,9.82
2023-02-16T22:52:11.465Z,9.84
2023-02-16T22:54:38.509Z,9.83
2023-02-16T22:57:07.204Z,9.85
2023-02-16T22:59:33.957Z,9.88
2023-02-16T23:02:00.535Z,9.90
2023-02-16T23:04:27.326Z,9.89
2023-02-16T23:06:53.896Z,9.90
2023-02-16T23:09:21.627Z,9.89
2023-02-16T23:11:49.334Z,9.88
2023-02-16T23:14:17.060Z,9.87
2023-02-16T23:16:51.793Z,9.88
2023-02-16T23:19:24.035Z,9.89
2023-02-16T23:21:53.125Z,9.89
2023-02-16T23:24:22.969Z,9.89
2023-02-16T23:26:50.359Z,9.90
2023-02-16T23:29:17.249Z,9.88
2023-02-16T23:31:44.970Z,9.93
2023-02-16T23:34:14.913Z,9.92
2023-02-16T23:36:42.357Z,9.90
2023-02-16T23:39:12.281Z,9.89
2023-02-16T23:41:39.219Z,9.92
2023-02-16T23:44:05.953Z,9.93
2023-02-16T23:46:32.567Z,9.92
2023-02-16T23:48:59.350Z,9.93
2023-02-16T23:51:26.582Z,9.96
2023-02-16T23:53:53.684Z,9.95
2023-02-16T23:56:23.111Z,9.96
2023-02-16T23:58:50.422Z,9.95
